createdAt,value
2018-10-21T00:01:20.716Z,4.60
2018-10-21T00:03:48.095Z,4.50
2018-10-21T00:06:15.403Z,4.60
2018-10-21T00:08:42.791Z,4.70
2018-10-21T00:11:10.072Z,4.70
2018-10-21T00:13:37.375Z,4.60
2018-10-21T00:16:04.813Z,4.60
2018-10-21T00:18:32.096Z,4.50
2018-10-21T00:20:59.425Z,4.60
2018-10-21T00:23:26.862Z,4.60
2018-10-21T00:25:54.184Z,4.70
2018-10-21T00:28:21.494Z,4.70
2018-10-21T00:30:48.903Z,4.60
2018-10-21T00:33:16.327Z,4.50
2018-10-21T00:35:43.552Z,4.50
2018-10-21T00:38:10.940Z,4.40
2018-10-21T00:40:38.226Z,4.40
2018-10-21T00:43:05.518Z,4.50
2018-10-21T00:45:32.934Z,4.50
2018-10-21T00:48:00.255Z,4.50
2018-10-21T00:50:27.523Z,4.60
2018-10-21T00:52:54.964Z,4.70
2018-10-21T00:55:22.243Z,4.80
2018-10-21T00:57:49.775Z,4.80
2018-10-21T01:00:17.085Z,4.90
2018-10-21T01:02:44.412Z,4.90
2018-10-21T01:05:11.721Z,4.80
2018-10-21T01:07:39.257Z,4.80
2018-10-21T01:10:08.233Z,4.90
2018-10-21T01:12:35.544Z,5.00
2018-10-21T01:15:03.138Z,5.20
2018-10-21T01:17:30.467Z,5.50
2018-10-21T01:19:57.779Z,5.60
2018-10-21T01:22:25.228Z,5.70
2018-10-21T01:24:52.500Z,5.70
2018-10-21T01:27:19.943Z,5.80
2018-10-21T01:29:47.659Z,5.90
2018-10-21T01:32:16.522Z,6.00
2018-10-21T01:34:43.812Z,6.10
2018-10-21T01:37:11.138Z,6.20
2018-10-21T01:40:51.456Z,6.20
2018-10-21T01:43:21.097Z,6.30
2018-10-21T01:45:48.475Z,6.40
2018-10-21T01:48:16.898Z,6.40
2018-10-21T01:50:44.323Z,6.40
2018-10-21T01:53:12.563Z,6.40
2018-10-21T01:55:39.869Z,6.50
2018-10-21T01:58:07.479Z,6.50
2018-10-21T02:00:35.165Z,6.50
2018-10-21T02:03:02.865Z,6.50
2018-10-21T02:05:30.603Z,6.50
2018-10-21T02:07:57.951Z,6.70
2018-10-21T02:10:25.315Z,6.70
2018-10-21T02:12:52.727Z,6.70
2018-10-21T02:15:20.049Z,6.70
2018-10-21T02:17:47.351Z,6.70
2018-10-21T02:20:15.604Z,6.80
2018-10-21T02:22:43.747Z,6.80
2018-10-21T02:25:11.075Z,6.70
2018-10-21T02:27:39.405Z,6.80
2018-10-21T02:30:09.325Z,6.80
2018-10-21T02:32:36.637Z,6.80
2018-10-21T02:35:04.989Z,6.70
2018-10-21T02:37:32.311Z,6.70
2018-10-21T02:39:59.645Z,6.60
2018-10-21T02:42:27.134Z,6.70
2018-10-21T02:44:54.439Z,6.70
2018-10-21T02:47:21.752Z,6.70
2018-10-21T02:49:49.145Z,6.60
2018-10-21T02:52:16.456Z,6.60
2018-10-21T02:54:43.868Z,6.60
2018-10-21T02:57:12.418Z,6.60
2018-10-21T02:59:39.687Z,6.70
2018-10-21T03:02:07.263Z,6.80
2018-10-21T03:04:34.776Z,6.80
2018-10-21T03:07:02.119Z,6.60
2018-10-21T03:09:29.856Z,6.50
2018-10-21T03:11:57.243Z,6.50
2018-10-21T03:14:24.531Z,6.40
2018-10-21T03:16:51.949Z,6.40
2018-10-21T03:19:19.331Z,6.40
2018-10-21T03:21:46.664Z,6.40
2018-10-21T03:24:13.972Z,6.60
2018-10-21T03:26:41.412Z,6.60
2018-10-21T03:29:08.746Z,6.60
2018-10-21T03:31:36.111Z,6.50
2018-10-21T03:34:03.558Z,6.30
2018-10-21T03:36:30.805Z,6.30
2018-10-21T03:38:58.116Z,6.30
2018-10-21T03:41:25.526Z,6.20
2018-10-21T03:43:52.824Z,6.30
2018-10-21T03:46:20.192Z,6.30
2018-10-21T03:48:47.595Z,6.40
2018-10-21T03:51:14.922Z,6.40
2018-10-21T03:53:42.345Z,6.40
2018-10-21T03:56:09.954Z,6.30
2018-10-21T03:58:37.383Z,6.30
2018-10-21T04:01:05.176Z,6.10
2018-10-21T04:03:32.717Z,5.90
2018-10-21T04:05:59.984Z,5.90
2018-10-21T04:08:27.246Z,5.80
2018-10-21T04:10:54.655Z,5.70
2018-10-21T04:13:21.927Z,5.60
2018-10-21T04:15:49.265Z,5.70
2018-10-21T04:18:16.738Z,5.70
2018-10-21T04:20:44.018Z,5.60
2018-10-21T04:23:11.281Z,5.60
2018-10-21T04:25:39.263Z,5.60
2018-10-21T04:28:07.219Z,5.50
2018-10-21T04:30:36.719Z,5.50
2018-10-21T04:33:08.269Z,5.50
2018-10-21T04:35:35.617Z,5.50
2018-10-21T04:38:25.161Z,5.50
2018-10-21T04:40:52.745Z,5.40
2018-10-21T04:43:20.041Z,5.40
2018-10-21T04:45:47.442Z,5.40
2018-10-21T04:48:14.822Z,5.40
2018-10-21T04:50:42.192Z,5.40
2018-10-21T04:53:09.635Z,5.30
2018-10-21T04:55:36.900Z,5.30
2018-10-21T04:58:04.522Z,5.30
2018-10-21T05:00:31.923Z,5.40
2018-10-21T05:02:59.157Z,5.40
2018-10-21T05:05:26.387Z,5.40
2018-10-21T05:10:29.889Z,5.70
2018-10-21T05:12:57.380Z,5.80
2018-10-21T05:15:25.650Z,5.60
2018-10-21T05:17:53.224Z,5.50
2018-10-21T05:20:20.612Z,5.50
2018-10-21T05:22:47.983Z,5.50
2018-10-21T05:25:15.384Z,5.40
2018-10-21T05:27:42.967Z,5.50
2018-10-21T05:30:11.153Z,5.50
2018-10-21T05:32:38.465Z,5.50
2018-10-21T05:35:07.536Z,5.40
2018-10-21T05:37:34.878Z,5.40
2018-10-21T05:40:02.201Z,5.50
2018-10-21T05:42:29.579Z,5.40
2018-10-21T05:44:57.047Z,5.30
2018-10-21T05:47:24.318Z,5.50
2018-10-21T05:49:51.635Z,5.60
2018-10-21T05:52:18.885Z,5.70
2018-10-21T05:54:46.179Z,5.60
2018-10-21T05:57:13.506Z,5.70
2018-10-21T05:59:40.786Z,5.60
2018-10-21T06:02:08.098Z,5.80
2018-10-21T06:04:35.533Z,5.90
2018-10-21T06:07:02.835Z,6.10
2018-10-21T06:09:30.139Z,6.20
2018-10-21T06:11:57.507Z,6.20
2018-10-21T06:14:24.799Z,6.20
2018-10-21T06:16:56.727Z,6.30
2018-10-21T06:19:28.440Z,6.40
2018-10-21T06:21:55.777Z,6.60
2018-10-21T06:24:23.307Z,6.80
2018-10-21T06:26:50.700Z,7.00
2018-10-21T06:29:18.008Z,7.20
2018-10-21T06:31:45.359Z,7.40
2018-10-21T06:34:12.663Z,7.60
2018-10-21T06:36:40.074Z,7.80
2018-10-21T06:39:08.016Z,8.00
2018-10-21T06:41:35.349Z,8.20
2018-10-21T06:44:02.636Z,8.30
2018-10-21T06:46:29.948Z,8.40
2018-10-21T06:48:57.299Z,8.60
2018-10-21T06:51:24.575Z,8.70
2018-10-21T06:53:51.838Z,8.80
2018-10-21T06:56:19.274Z,9.00
2018-10-21T06:58:46.519Z,9.10
2018-10-21T07:01:13.811Z,9.10
2018-10-21T07:03:41.136Z,9.10
2018-10-21T07:06:10.639Z,9.10
2018-10-21T07:08:37.960Z,9.10
2018-10-21T07:11:05.751Z,9.10
2018-10-21T07:13:33.190Z,9.10
2018-10-21T07:16:00.528Z,9.10
2018-10-21T07:18:28.043Z,9.10
2018-10-21T07:20:55.422Z,9.10
2018-10-21T07:23:22.712Z,9.10
2018-10-21T07:25:50.137Z,9.10
2018-10-21T07:28:17.628Z,9.20
2018-10-21T07:30:44.765Z,9.20
2018-10-21T07:33:12.156Z,9.20
2018-10-21T07:35:39.443Z,9.20
2018-10-21T07:38:06.718Z,9.30
2018-10-21T07:40:34.000Z,9.30
2018-10-21T07:43:01.276Z,9.30
2018-10-21T07:45:28.519Z,9.50
2018-10-21T07:47:55.896Z,9.70
2018-10-21T07:50:23.180Z,9.90
2018-10-21T07:52:50.546Z,10.10
2018-10-21T07:55:18.306Z,10.10
2018-10-21T07:57:46.199Z,10.30
2018-10-21T08:00:13.505Z,10.30
2018-10-21T08:02:40.949Z,10.30
2018-10-21T08:06:16.361Z,10.30
2018-10-21T08:08:43.809Z,10.30
2018-10-21T08:11:11.117Z,10.40
2018-10-21T08:13:38.396Z,10.50
2018-10-21T08:16:05.882Z,10.60
2018-10-21T08:18:33.154Z,10.80
2018-10-21T08:21:00.467Z,10.90
2018-10-21T08:23:27.891Z,11.00
2018-10-21T08:25:55.156Z,11.10
2018-10-21T08:28:22.456Z,11.20
2018-10-21T08:30:49.855Z,11.30
2018-10-21T08:33:17.157Z,11.50
2018-10-21T08:35:44.396Z,11.40
2018-10-21T08:38:11.803Z,11.40
2018-10-21T08:40:39.112Z,11.40
2018-10-21T08:43:06.414Z,11.40
2018-10-21T08:45:33.839Z,11.30
2018-10-21T08:48:01.171Z,11.30
2018-10-21T08:50:28.571Z,11.40
2018-10-21T08:52:56.251Z,11.60
2018-10-21T08:55:23.601Z,11.70
2018-10-21T08:57:50.961Z,11.70
2018-10-21T09:00:19.215Z,11.70
2018-10-21T09:02:46.772Z,11.70
2018-10-21T09:05:16.352Z,11.70
2018-10-21T09:07:44.269Z,11.70
2018-10-21T09:10:12.841Z,12.00
2018-10-21T09:12:40.400Z,12.20
2018-10-21T09:15:10.686Z,12.20
2018-10-21T09:17:38.391Z,12.30
2018-10-21T09:20:12.425Z,12.20
2018-10-21T09:22:39.827Z,12.30
2018-10-21T09:25:08.009Z,12.50
2018-10-21T09:27:35.392Z,12.60
2018-10-21T09:30:03.100Z,12.60
2018-10-21T09:32:30.467Z,12.70
2018-10-21T09:34:57.950Z,12.70
2018-10-21T09:37:25.287Z,12.70
2018-10-21T09:39:52.603Z,12.90
2018-10-21T09:42:20.028Z,12.90
2018-10-21T09:44:47.265Z,12.90
2018-10-21T09:47:17.112Z,13.10
2018-10-21T09:49:47.589Z,13.20
2018-10-21T09:52:14.987Z,13.20
2018-10-21T09:54:42.153Z,13.20
2018-10-21T09:57:09.535Z,13.30
2018-10-21T09:59:36.740Z,13.30
2018-10-21T10:02:09.973Z,13.40
2018-10-21T10:04:38.136Z,13.40
2018-10-21T10:07:05.524Z,13.50
2018-10-21T10:09:32.895Z,13.40
2018-10-21T10:12:00.327Z,13.40
2018-10-21T10:14:27.629Z,13.40
2018-10-21T10:16:55.003Z,13.30
2018-10-21T10:19:22.268Z,13.20
2018-10-21T10:21:49.538Z,13.20
2018-10-21T10:24:16.932Z,13.20
2018-10-21T10:26:44.204Z,13.20
2018-10-21T10:29:11.471Z,13.30
2018-10-21T10:31:38.801Z,13.40
2018-10-21T10:34:06.189Z,13.50
2018-10-21T10:36:33.399Z,13.50
2018-10-21T10:39:00.761Z,13.60
2018-10-21T10:41:28.044Z,13.60
2018-10-21T10:43:55.284Z,13.60
2018-10-21T10:46:22.672Z,13.70
2018-10-21T10:48:49.921Z,13.80
2018-10-21T10:51:17.170Z,14.00
2018-10-21T10:53:44.648Z,14.00
2018-10-21T10:56:11.896Z,13.80
2018-10-21T10:58:39.239Z,13.80
2018-10-21T11:01:06.626Z,13.90
2018-10-21T11:03:36.706Z,13.80
2018-10-21T11:06:04.128Z,13.90
2018-10-21T11:08:31.763Z,13.90
2018-10-21T11:10:59.367Z,13.80
2018-10-21T11:13:26.639Z,13.80
2018-10-21T11:15:54.106Z,13.70
2018-10-21T11:18:21.388Z,13.60
2018-10-21T11:20:48.706Z,13.60
2018-10-21T11:23:22.156Z,13.50
2018-10-21T11:25:49.534Z,13.50
2018-10-21T11:28:16.933Z,13.40
2018-10-21T11:30:44.244Z,13.30
2018-10-21T11:33:12.067Z,13.30
2018-10-21T11:35:39.360Z,13.50
2018-10-21T11:38:06.826Z,13.60
2018-10-21T11:40:34.136Z,13.70
2018-10-21T11:43:01.497Z,13.80
2018-10-21T11:45:28.892Z,13.90
2018-10-21T11:47:56.182Z,13.90
2018-10-21T11:50:23.506Z,13.90
2018-10-21T11:52:50.924Z,13.90
2018-10-21T11:55:18.353Z,13.80
2018-10-21T11:57:45.559Z,13.80
2018-10-21T12:00:13.057Z,13.80
2018-10-21T12:02:40.381Z,13.80
2018-10-21T12:05:07.703Z,13.70
2018-10-21T12:07:35.244Z,13.70
2018-10-21T12:10:02.564Z,14.00
2018-10-21T12:12:29.911Z,14.00
2018-10-21T12:14:57.339Z,14.10
2018-10-21T12:17:24.670Z,14.10
2018-10-21T12:19:52.439Z,14.20
2018-10-21T12:22:19.887Z,14.10
2018-10-21T12:24:47.055Z,14.20
2018-10-21T12:27:14.315Z,14.40
2018-10-21T12:29:41.727Z,14.40
2018-10-21T12:32:08.999Z,14.50
2018-10-21T12:34:36.283Z,14.50
2018-10-21T12:37:03.786Z,14.30
2018-10-21T12:39:31.119Z,14.20
2018-10-21T12:41:58.389Z,14.10
2018-10-21T12:44:25.758Z,14.00
2018-10-21T12:46:53.039Z,14.00
2018-10-21T12:49:20.318Z,13.90
2018-10-21T12:51:47.695Z,13.80
2018-10-21T12:54:15.149Z,13.80
2018-10-21T12:56:42.247Z,13.90
2018-10-21T12:59:09.647Z,13.90
2018-10-21T13:01:36.942Z,13.80
2018-10-21T13:04:04.374Z,13.80
2018-10-21T13:06:31.757Z,13.90
2018-10-21T13:08:59.179Z,13.90
2018-10-21T13:11:26.494Z,14.00
2018-10-21T13:13:54.169Z,14.00
2018-10-21T13:16:21.459Z,14.00
2018-10-21T13:18:48.749Z,13.90
2018-10-21T13:21:16.184Z,13.90
2018-10-21T13:23:43.499Z,13.80
2018-10-21T13:26:10.874Z,13.70
2018-10-21T13:28:38.274Z,13.70
2018-10-21T13:31:05.592Z,13.70
2018-10-21T13:33:33.419Z,13.70
2018-10-21T13:36:00.780Z,13.70
2018-10-21T13:38:28.177Z,13.80
2018-10-21T13:40:55.496Z,13.80
2018-10-21T13:43:22.995Z,13.80
2018-10-21T13:45:50.344Z,13.70
2018-10-21T13:48:17.652Z,13.60
2018-10-21T13:50:45.105Z,13.50
2018-10-21T13:53:12.518Z,13.50
2018-10-21T13:55:39.760Z,13.50
2018-10-21T13:58:07.284Z,13.40
2018-10-21T14:00:34.763Z,13.30
2018-10-21T14:03:01.960Z,13.30
2018-10-21T14:05:29.375Z,13.30
2018-10-21T14:07:56.638Z,13.30
2018-10-21T14:10:23.966Z,13.20
2018-10-21T14:12:51.421Z,13.20
2018-10-21T14:15:18.819Z,13.20
2018-10-21T14:17:46.056Z,13.20
2018-10-21T14:20:13.471Z,13.20
2018-10-21T14:22:40.844Z,13.20
2018-10-21T14:25:08.316Z,13.20
2018-10-21T14:27:36.005Z,13.20
2018-10-21T14:30:04.381Z,13.20
2018-10-21T14:32:31.657Z,13.20
2018-10-21T14:34:59.070Z,13.10
2018-10-21T14:37:26.384Z,13.10
2018-10-21T14:39:53.717Z,13.10
2018-10-21T14:42:21.138Z,13.10
2018-10-21T14:44:48.791Z,13.10
2018-10-21T14:47:16.113Z,13.00
2018-10-21T14:49:43.602Z,13.00
2018-10-21T14:52:10.953Z,12.90
2018-10-21T14:54:38.252Z,12.90
2018-10-21T14:57:05.852Z,12.90
2018-10-21T14:59:33.163Z,13.00
2018-10-21T15:02:00.519Z,12.90
2018-10-21T15:04:27.938Z,12.90
2018-10-21T15:06:55.190Z,12.80
2018-10-21T15:09:22.482Z,12.80
2018-10-21T15:11:50.135Z,12.80
2018-10-21T15:14:17.565Z,12.80
2018-10-21T15:16:44.956Z,12.70
2018-10-21T15:19:12.445Z,12.70
2018-10-21T15:21:39.828Z,12.80
2018-10-21T15:24:07.240Z,12.70
2018-10-21T15:26:34.909Z,12.70
2018-10-21T15:29:02.352Z,12.70
2018-10-21T15:31:29.751Z,12.60
2018-10-21T15:33:57.278Z,12.60
2018-10-21T15:36:24.603Z,12.50
2018-10-21T15:38:51.927Z,12.50
2018-10-21T15:41:19.525Z,12.50
2018-10-21T15:43:46.910Z,12.40
2018-10-21T15:46:14.416Z,12.40
2018-10-21T15:48:41.818Z,12.40
2018-10-21T15:51:09.118Z,12.30
2018-10-21T15:53:36.559Z,12.30
2018-10-21T15:56:04.440Z,12.30
2018-10-21T15:58:31.708Z,12.30
2018-10-21T16:00:58.979Z,12.30
2018-10-21T16:03:27.166Z,12.20
2018-10-21T16:05:54.550Z,12.20
2018-10-21T16:08:21.834Z,12.20
2018-10-21T16:10:49.223Z,12.10
2018-10-21T16:13:16.488Z,12.10
2018-10-21T16:15:43.740Z,12.10
2018-10-21T16:18:11.028Z,12.10
2018-10-21T16:20:38.283Z,12.10
2018-10-21T16:23:05.546Z,12.10
2018-10-21T16:25:33.026Z,12.10
2018-10-21T16:28:00.408Z,12.10
2018-10-21T16:30:27.527Z,12.10
2018-10-21T16:32:55.741Z,12.10
2018-10-21T16:35:22.943Z,12.10
2018-10-21T16:37:50.248Z,12.10
2018-10-21T16:40:17.618Z,12.10
2018-10-21T16:42:44.910Z,12.10
2018-10-21T16:45:13.224Z,12.10
2018-10-21T16:47:40.808Z,12.10
2018-10-21T16:50:13.119Z,12.10
2018-10-21T16:52:41.313Z,12.10
2018-10-21T16:55:09.445Z,12.10
2018-10-21T16:57:37.115Z,12.10
2018-10-21T17:00:06.584Z,12.10
2018-10-21T17:02:33.783Z,12.10
2018-10-21T17:05:01.130Z,12.10
2018-10-21T17:07:28.475Z,12.10
2018-10-21T17:09:57.007Z,12.10
2018-10-21T17:12:24.136Z,12.10
2018-10-21T17:14:51.511Z,12.20
2018-10-21T17:17:18.845Z,12.20
2018-10-21T17:19:46.030Z,12.20
2018-10-21T17:22:13.460Z,12.20
2018-10-21T17:24:40.704Z,12.20
2018-10-21T17:27:07.971Z,12.20
2018-10-21T17:29:35.426Z,12.20
2018-10-21T17:32:02.743Z,12.30
2018-10-21T17:34:30.424Z,12.30
2018-10-21T17:36:57.843Z,12.30
2018-10-21T17:39:25.116Z,12.30
2018-10-21T17:41:52.401Z,12.30
2018-10-21T17:44:19.837Z,12.30
2018-10-21T17:46:47.158Z,12.30
2018-10-21T17:49:14.532Z,12.30
2018-10-21T17:51:41.988Z,12.30
2018-10-21T17:54:09.299Z,12.30
2018-10-21T17:56:42.581Z,12.30
2018-10-21T17:59:09.915Z,12.40
2018-10-21T18:01:37.244Z,12.40
2018-10-21T18:04:04.838Z,12.40
2018-10-21T18:06:32.139Z,12.40
2018-10-21T18:08:59.431Z,12.40
2018-10-21T18:11:26.817Z,12.40
2018-10-21T18:13:54.076Z,12.40
2018-10-21T18:16:21.328Z,12.40
2018-10-21T18:18:48.755Z,12.40
2018-10-21T18:21:16.042Z,12.40
2018-10-21T18:23:43.321Z,12.40
2018-10-21T18:26:10.828Z,12.40
2018-10-21T18:28:38.051Z,12.40
2018-10-21T18:31:05.373Z,12.40
2018-10-21T18:33:32.751Z,12.40
2018-10-21T18:36:00.018Z,12.40
2018-10-21T18:38:27.299Z,12.40
2018-10-21T18:40:54.805Z,12.40
2018-10-21T18:43:22.179Z,12.40
2018-10-21T18:45:49.476Z,12.40
2018-10-21T18:48:16.902Z,12.40
2018-10-21T18:50:45.700Z,12.40
2018-10-21T18:53:15.246Z,12.40
2018-10-21T18:55:43.072Z,12.40
2018-10-21T18:58:12.988Z,12.40
2018-10-21T19:00:40.186Z,12.40
2018-10-21T19:03:07.572Z,12.50
2018-10-21T19:05:34.876Z,12.50
2018-10-21T19:08:02.203Z,12.50
2018-10-21T19:10:29.604Z,12.50
2018-10-21T19:13:00.053Z,12.60
2018-10-21T19:15:24.172Z,12.50
2018-10-21T19:17:51.607Z,12.60
2018-10-21T19:20:18.860Z,12.60
2018-10-21T19:22:46.174Z,12.60
2018-10-21T19:25:14.819Z,12.60
2018-10-21T19:27:42.666Z,12.60
2018-10-21T19:30:10.843Z,12.60
2018-10-21T19:32:38.307Z,12.70
2018-10-21T19:35:06.221Z,12.70
2018-10-21T19:37:33.473Z,12.70
2018-10-21T19:40:00.879Z,12.70
2018-10-21T19:42:28.129Z,12.70
2018-10-21T19:44:55.383Z,12.70
2018-10-21T19:47:22.771Z,12.70
2018-10-21T19:49:50.082Z,12.70
2018-10-21T19:52:17.393Z,12.70
2018-10-21T19:54:44.696Z,12.70
2018-10-21T19:57:11.939Z,12.70
2018-10-21T19:59:39.197Z,12.70
2018-10-21T20:02:06.609Z,12.70
2018-10-21T20:04:33.847Z,12.70
2018-10-21T20:07:01.138Z,12.70
2018-10-21T20:09:28.535Z,12.70
2018-10-21T20:11:55.772Z,12.70
2018-10-21T20:14:23.014Z,12.70
2018-10-21T20:16:50.395Z,12.70
2018-10-21T20:19:17.675Z,12.70
2018-10-21T20:21:44.927Z,12.70
2018-10-21T20:24:12.289Z,12.70
2018-10-21T20:26:39.545Z,12.70
2018-10-21T20:29:06.839Z,12.70
2018-10-21T20:31:34.234Z,12.70
2018-10-21T20:34:01.494Z,12.70
2018-10-21T20:36:28.838Z,12.70
2018-10-21T20:38:56.160Z,12.70
2018-10-21T20:41:23.408Z,12.80
2018-10-21T20:43:50.662Z,12.70
2018-10-21T20:46:18.227Z,12.70
2018-10-21T20:48:45.344Z,12.70
2018-10-21T20:51:12.657Z,12.70
2018-10-21T20:53:39.971Z,12.70
2018-10-21T20:56:07.196Z,12.70
2018-10-21T20:58:34.447Z,12.70
2018-10-21T21:01:01.783Z,12.70
2018-10-21T21:03:29.027Z,12.70
2018-10-21T21:05:56.268Z,12.70
2018-10-21T21:08:23.652Z,12.70
2018-10-21T21:10:50.927Z,12.80
2018-10-21T21:13:18.195Z,12.80
2018-10-21T21:15:45.584Z,12.80
2018-10-21T21:18:12.853Z,12.80
2018-10-21T21:20:40.274Z,12.80
2018-10-21T21:23:07.539Z,12.80
2018-10-21T21:25:34.800Z,12.80
2018-10-21T21:28:02.060Z,12.80
2018-10-21T21:30:29.493Z,12.80
2018-10-21T21:32:56.705Z,12.80
2018-10-21T21:35:23.925Z,12.80
2018-10-21T21:37:51.295Z,12.80
2018-10-21T21:40:18.615Z,12.80
2018-10-21T21:42:45.819Z,12.80
2018-10-21T21:45:13.195Z,12.70
2018-10-21T21:47:40.496Z,12.60
2018-10-21T21:50:08.254Z,12.60
2018-10-21T21:52:35.551Z,12.60
2018-10-21T21:55:02.860Z,12.50
2018-10-21T21:57:30.113Z,12.50
2018-10-21T21:59:57.390Z,12.50
2018-10-21T22:02:24.627Z,12.60
2018-10-21T22:04:51.882Z,12.50
2018-10-21T22:07:19.235Z,12.50
2018-10-21T22:09:46.475Z,12.50
2018-10-21T22:12:13.826Z,12.50
2018-10-21T22:14:41.027Z,12.50
2018-10-21T22:17:08.280Z,12.50
2018-10-21T22:19:35.530Z,12.50
2018-10-21T22:22:02.970Z,12.50
2018-10-21T22:24:30.223Z,12.50
2018-10-21T22:26:57.483Z,12.50
2018-10-21T22:29:24.784Z,12.50
2018-10-21T22:31:52.025Z,12.50
2018-10-21T22:34:19.329Z,12.50
2018-10-21T22:36:46.654Z,12.50
2018-10-21T22:39:13.950Z,12.60
2018-10-21T22:41:41.158Z,12.60
2018-10-21T22:44:08.534Z,12.60
2018-10-21T22:46:35.830Z,12.60
2018-10-21T22:49:03.489Z,12.60
2018-10-21T22:51:30.883Z,12.50
2018-10-21T22:53:58.184Z,12.50
2018-10-21T22:56:25.402Z,12.50
2018-10-21T22:58:52.968Z,12.60
2018-10-21T23:01:20.214Z,12.50
2018-10-21T23:03:47.459Z,12.50
2018-10-21T23:06:14.925Z,12.50
2018-10-21T23:08:42.083Z,12.50
2018-10-21T23:11:09.348Z,12.40
2018-10-21T23:13:36.726Z,12.40
2018-10-21T23:16:04.623Z,12.40
2018-10-21T23:18:31.896Z,12.40
2018-10-21T23:20:59.296Z,12.40
2018-10-21T23:23:26.595Z,12.30
2018-10-21T23:25:53.850Z,12.30
2018-10-21T23:28:21.209Z,12.30
2018-10-21T23:30:48.438Z,12.30
2018-10-21T23:33:15.683Z,12.20
2018-10-21T23:35:43.060Z,12.20
2018-10-21T23:38:10.335Z,12.30
2018-10-21T23:40:37.571Z,12.30
2018-10-21T23:43:04.943Z,12.30
2018-10-21T23:45:32.189Z,12.30
2018-10-21T23:47:59.542Z,12.30
2018-10-21T23:50:26.949Z,12.30
2018-10-21T23:52:54.199Z,12.30
2018-10-21T23:55:21.452Z,12.30
2018-10-21T23:57:48.735Z,12.30
